Time;durP1;ratioP1;P1;durP2;ratioP2;P2;SDS_P1;SDS_P2;PMS_P1;PMS_P2;Temp;Humidity;BMP_temperature;BMP_pressure;BME280_temperature;BME280_humidity;BME280_pressure;Samples;Min_cycle;Max_cycle;Signal;HPM_P1;HPM_P2
2021/08/07 00:00:26;;;;;;;1.73;1.30;;;;;;;16.33;62.20;100452.88;5028818;28;20203;-68
2021/08/07 00:02:54;;;;;;;1.20;1.10;;;;;;;16.36;61.77;100456.16;5025662;28;20199;-68
2021/08/07 00:05:23;;;;;;;1.40;1.30;;;;;;;16.35;62.15;100451.72;5018517;28;20225;-68
2021/08/07 00:07:51;;;;;;;1.40;1.30;;;;;;;16.31;62.77;100455.75;5028374;28;20214;-68
2021/08/07 00:10:20;;;;;;;1.07;1.03;;;;;;;16.33;62.45;100450.19;5028674;28;20195;-68
2021/08/07 00:12:48;;;;;;;2.00;1.17;;;;;;;16.37;62.37;100446.16;5028102;28;20617;-68
2021/08/07 00:15:18;;;;;;;2.13;1.30;;;;;;;16.39;62.39;100453.13;5019379;28;20218;-68
2021/08/07 00:17:46;;;;;;;1.37;1.27;;;;;;;16.34;62.57;100447.31;5032585;28;20206;-69
2021/08/07 00:20:15;;;;;;;6.53;1.07;;;;;;;16.38;62.10;100439.75;5032029;28;20576;-68
2021/08/07 00:22:43;;;;;;;1.17;1.17;;;;;;;16.39;62.36;100446.88;5032422;28;20206;-68
2021/08/07 00:25:12;;;;;;;1.43;1.30;;;;;;;16.17;62.82;100404.72;5032153;28;20219;-68
2021/08/07 00:27:40;;;;;;;2.03;1.20;;;;;;;16.36;62.90;100439.88;5032394;28;20207;-69
2021/08/07 00:30:10;;;;;;;1.10;1.10;;;;;;;16.37;63.33;100443.44;5032243;28;20238;-68
2021/08/07 00:32:40;;;;;;;1.00;1.00;;;;;;;16.38;63.20;100424.34;5047577;28;20202;-68
2021/08/07 00:35:12;;;;;;;1.73;1.30;;;;;;;16.40;63.44;100438.59;5030585;28;20194;-68
2021/08/07 00:37:42;;;;;;;1.40;1.30;;;;;;;16.00;63.49;100378.44;5030853;28;20238;-68
2021/08/07 00:40:14;;;;;;;1.27;1.17;;;;;;;16.34;63.71;100424.78;5043516;28;20207;-68
2021/08/07 00:42:45;;;;;;;1.30;1.20;;;;;;;16.30;63.82;100421.53;5032136;28;20218;-68
2021/08/07 00:45:23;;;;;;;1.17;1.13;;;;;;;16.32;63.26;100408.66;5030640;28;20715;-67
2021/08/07 00:47:53;;;;;;;1.20;1.20;;;;;;;16.37;63.50;100421.78;5030815;28;20202;-68
2021/08/07 00:50:22;;;;;;;1.00;0.97;;;;;;;16.40;64.00;100414.19;5030846;28;20206;-68
2021/08/07 00:52:53;;;;;;;1.23;1.20;;;;;;;16.33;63.79;100410.38;5044610;28;20204;-68
2021/08/07 00:55:26;;;;;;;1.43;1.20;;;;;;;16.35;64.55;100413.78;5039272;28;20556;-68
2021/08/07 00:57:56;;;;;;;1.57;1.43;;;;;;;16.33;64.71;100413.09;5031659;28;20207;-67
2021/08/07 01:00:26;;;;;;;1.40;1.00;;;;;;;16.35;64.04;100416.50;5043654;28;20621;-69
2021/08/07 01:03:03;;;;;;;1.30;1.20;;;;;;;16.33;64.26;100410.38;5029223;28;20195;-69
2021/08/07 01:05:45;;;;;;;1.27;1.17;;;;;;;16.28;65.50;100407.25;5043557;28;20233;-68
2021/08/07 01:08:18;;;;;;;0.97;0.97;;;;;;;15.97;65.46;100376.00;5046394;28;20249;-68
2021/08/07 01:11:06;;;;;;;1.33;1.20;;;;;;;16.21;65.55;100410.69;5031579;28;20257;-68
2021/08/07 01:13:38;;;;;;;1.20;1.10;;;;;;;16.13;66.29;100408.72;5025919;28;21078;-68
2021/08/07 01:16:11;;;;;;;1.40;1.30;;;;;;;16.01;66.14;100385.53;5032018;28;20269;-68
2021/08/07 01:18:44;;;;;;;1.73;1.20;;;;;;;16.10;67.09;100404.47;5018252;28;20195;-68
2021/08/07 01:21:18;;;;;;;1.17;1.17;;;;;;;16.09;66.96;100401.91;5019782;28;20628;-68
2021/08/07 01:24:00;;;;;;;0.97;0.97;;;;;;;15.65;67.06;100325.81;5042211;28;20284;-67
2021/08/07 01:26:38;;;;;;;1.23;1.13;;;;;;;16.02;67.04;100393.53;5020653;28;20215;-67
2021/08/07 01:29:20;;;;;;;1.47;1.20;;;;;;;15.95;68.25;100392.41;5028494;28;20199;-67
2021/08/07 01:31:58;;;;;;;1.10;1.00;;;;;;;15.91;68.66;100396.38;5018427;28;20604;-67
2021/08/07 01:34:35;;;;;;;5.77;1.10;;;;;;;15.88;69.09;100391.28;5038816;28;20207;-68
2021/08/07 01:37:05;;;;;;;1.30;1.20;;;;;;;15.84;68.86;100388.00;5018138;28;20196;-67
2021/08/07 01:39:50;;;;;;;1.30;1.20;;;;;;;15.83;69.75;100380.88;5039342;28;20675;-67
2021/08/07 01:42:25;;;;;;;1.63;1.30;;;;;;;15.88;68.95;100382.28;5022688;28;20207;-67
2021/08/07 01:44:57;;;;;;;1.40;1.30;;;;;;;15.87;69.18;100380.59;5039708;28;20203;-67
2021/08/07 01:47:40;;;;;;;1.30;1.20;;;;;;;15.37;70.16;100307.75;5023093;28;20298;-67
2021/08/07 01:50:17;;;;;;;2.10;1.33;;;;;;;15.70;70.31;100363.25;5024209;28;20198;-67
2021/08/07 01:52:48;;;;;;;1.80;1.30;;;;;;;15.76;70.89;100366.22;5043059;28;20202;-67
2021/08/07 01:55:21;;;;;;;1.10;1.10;;;;;;;15.73;71.07;100371.94;5029125;28;20585;-68
2021/08/07 01:57:56;;;;;;;4.23;1.60;;;;;;;15.71;70.69;100359.56;5028741;28;20257;-67
2021/08/07 02:00:27;;;;;;;1.20;1.20;;;;;;;15.60;71.52;100354.28;5036553;28;20376;-68
2021/08/07 02:02:59;;;;;;;1.70;1.40;;;;;;;15.65;71.30;100355.59;5030559;28;20249;-68
2021/08/07 02:05:31;;;;;;;1.57;1.10;;;;;;;15.59;72.16;100350.72;5030215;28;20257;-68
2021/08/07 02:08:03;;;;;;;1.40;1.30;;;;;;;15.57;72.84;100351.84;5029143;28;20203;-68
2021/08/07 02:10:38;;;;;;;6.10;1.57;;;;;;;15.06;73.61;100283.59;5018498;28;20249;-68
2021/08/07 02:13:07;;;;;;;2.23;1.57;;;;;;;15.48;73.49;100348.16;5026168;28;20221;-68
2021/08/07 02:15:38;;;;;;;1.40;1.30;;;;;;;15.45;73.99;100341.19;5029016;28;20248;-67
2021/08/07 02:18:12;;;;;;;1.50;1.40;;;;;;;15.48;74.09;100335.47;5042412;28;20202;-68
2021/08/07 02:20:42;;;;;;;1.20;1.20;;;;;;;15.12;74.19;100282.16;5045624;28;20301;-67
2021/08/07 02:23:14;;;;;;;3.33;1.37;;;;;;;15.48;74.52;100342.75;5031134;28;20294;-68
2021/08/07 02:25:44;;;;;;;2.17;1.30;;;;;;;15.08;74.79;100292.41;5028804;28;20215;-68
2021/08/07 02:28:23;;;;;;;2.40;1.40;;;;;;;15.46;74.68;100332.06;5045267;28;20214;-68
2021/08/07 02:30:55;;;;;;;4.13;1.27;;;;;;;15.33;74.40;100298.22;5028542;28;20226;-67
2021/08/07 02:33:26;;;;;;;1.90;1.23;;;;;;;15.51;74.71;100331.63;5041982;28;20618;-68
2021/08/07 02:35:56;;;;;;;1.30;1.20;;;;;;;15.51;75.05;100334.34;5028632;28;20209;-68
2021/08/07 02:38:27;;;;;;;1.33;1.27;;;;;;;15.57;74.17;100341.88;5027584;28;20207;-68
2021/08/07 02:40:56;;;;;;;1.20;1.17;;;;;;;15.62;74.36;100336.06;5028516;28;20289;-68
2021/08/07 02:43:27;;;;;;;1.60;1.33;;;;;;;15.58;75.05;100340.91;5028370;28;20213;-68
2021/08/07 02:45:59;;;;;;;1.37;1.27;;;;;;;15.50;75.15;100336.19;5045272;28;20230;-67
2021/08/07 02:48:31;;;;;;;1.40;1.30;;;;;;;15.50;74.81;100328.06;5030769;28;20583;-68
2021/08/07 02:51:02;;;;;;;1.77;1.40;;;;;;;15.52;74.85;100333.34;5028394;28;20582;-68
2021/08/07 02:53:38;;;;;;;1.57;1.47;;;;;;;15.56;74.88;100329.34;5028356;28;20212;-68
2021/08/07 02:56:06;;;;;;;1.73;1.30;;;;;;;15.61;74.44;100321.69;5028303;28;20611;-67
2021/08/07 02:58:35;;;;;;;1.60;1.20;;;;;;;15.56;74.60;100315.78;5027904;28;20258;-68
2021/08/07 03:01:05;;;;;;;1.40;1.30;;;;;;;15.56;75.37;100323.91;5043465;28;20217;-67
2021/08/07 03:03:34;;;;;;;1.40;1.30;;;;;;;15.51;74.97;100304.56;5019870;28;20217;-68
2021/08/07 03:06:04;;;;;;;1.40;1.30;;;;;;;15.54;75.44;100312.38;5039874;28;20215;-67
2021/08/07 03:08:35;;;;;;;1.57;1.17;;;;;;;15.60;74.49;100301.00;5044590;28;20199;-67
2021/08/07 03:11:04;;;;;;;1.40;1.33;;;;;;;15.45;74.76;100289.75;5044675;28;20207;-68
2021/08/07 03:13:32;;;;;;;1.80;1.40;;;;;;;15.50;75.41;100300.16;5029118;28;20202;-68
2021/08/07 03:16:01;;;;;;;1.70;1.60;;;;;;;15.48;75.81;100299.44;5028240;28;20209;-68
2021/08/07 03:18:38;;;;;;;1.63;1.53;;;;;;;15.49;75.77;100295.75;5041032;28;20222;-67
2021/08/07 03:21:06;;;;;;;1.27;1.17;;;;;;;15.47;75.31;100295.03;5037928;28;20202;-67
2021/08/07 03:23:44;;;;;;;1.30;1.20;;;;;;;15.47;75.45;100289.63;5027924;28;20675;-67
2021/08/07 03:26:13;;;;;;;1.70;1.57;;;;;;;15.41;75.92;100285.66;5027686;28;20219;-68
2021/08/07 03:28:41;;;;;;;1.97;1.43;;;;;;;15.42;76.21;100291.91;5028148;28;20563;-68
2021/08/07 03:31:13;;;;;;;1.30;1.20;;;;;;;15.38;76.55;100287.81;5029111;28;20226;-68
2021/08/07 03:33:43;;;;;;;1.57;1.40;;;;;;;15.41;76.16;100287.50;5029180;28;20205;-67
2021/08/07 03:36:13;;;;;;;1.50;1.40;;;;;;;15.40;76.16;100297.47;5028972;28;20277;-67
2021/08/07 03:38:44;;;;;;;1.03;1.03;;;;;;;15.42;76.86;100292.78;5027845;28;20198;-67
2021/08/07 03:41:12;;;;;;;2.20;1.40;;;;;;;15.41;76.85;100291.06;5027863;28;20656;-68
2021/08/07 03:43:41;;;;;;;1.40;1.30;;;;;;;15.32;77.74;100288.38;5027632;28;20587;-67
2021/08/07 03:46:10;;;;;;;1.40;1.30;;;;;;;15.35;77.17;100290.81;5027764;28;20198;-67
2021/08/07 03:48:38;;;;;;;1.97;1.50;;;;;;;15.38;77.08;100282.38;5027990;28;20202;-68
2021/08/07 03:51:07;;;;;;;1.30;1.20;;;;;;;15.38;77.45;100279.69;5031674;28;20206;-68
2021/08/07 03:53:43;;;;;;;1.73;1.30;;;;;;;15.41;77.66;100268.56;5045221;28;20298;-68
2021/08/07 03:56:14;;;;;;;2.20;1.50;;;;;;;15.36;77.04;100262.75;5046424;28;20194;-68
2021/08/07 03:58:43;;;;;;;1.50;1.40;;;;;;;15.41;77.49;100282.94;5031952;28;20206;-68
2021/08/07 04:01:14;;;;;;;3.53;1.30;;;;;;;15.39;77.64;100276.81;5044714;28;20199;-68
2021/08/07 04:03:42;;;;;;;2.07;1.43;;;;;;;15.45;77.73;100268.13;5037960;28;20205;-67
2021/08/07 04:06:33;;;;;;;2.20;1.30;;;;;;;15.48;78.04;100277.78;5047791;28;20221;-68
2021/08/07 04:09:05;;;;;;;1.37;1.27;;;;;;;15.48;77.46;100272.38;5032795;28;20411;-68
2021/08/07 04:11:33;;;;;;;1.10;1.10;;;;;;;15.48;77.51;100267.81;5032269;28;20214;-68
2021/08/07 04:14:05;;;;;;;2.50;1.60;;;;;;;15.53;77.67;100259.25;5048123;28;20213;-68
2021/08/07 04:16:35;;;;;;;3.27;1.50;;;;;;;15.45;78.59;100256.44;5047521;28;20310;-68
2021/08/07 04:19:14;;;;;;;1.77;1.30;;;;;;;15.57;77.52;100255.25;5047934;28;20236;-67
2021/08/07 04:21:48;;;;;;;2.20;1.10;;;;;;;15.69;78.00;100253.25;5031272;28;20199;-68
2021/08/07 04:24:17;;;;;;;1.60;1.40;;;;;;;15.81;76.56;100258.31;5047533;28;20241;-67
2021/08/07 04:26:45;;;;;;;1.43;1.33;;;;;;;15.73;77.68;100260.06;5030774;28;20214;-68
2021/08/07 04:29:17;;;;;;;2.67;1.40;;;;;;;15.82;76.66;100242.94;5044189;28;20646;-68
2021/08/07 04:31:48;;;;;;;1.57;1.47;;;;;;;15.89;76.85;100241.31;5044548;28;20269;-68
2021/08/07 04:34:17;;;;;;;1.60;1.40;;;;;;;16.00;76.00;100251.13;5030748;28;20210;-67
2021/08/07 04:36:46;;;;;;;1.63;1.37;;;;;;;16.05;75.70;100248.78;5030749;28;20222;-67
2021/08/07 04:39:17;;;;;;;1.83;1.50;;;;;;;16.09;76.33;100248.34;5031148;28;20234;-68
2021/08/07 04:41:45;;;;;;;2.77;1.50;;;;;;;16.08;76.42;100248.50;5045043;28;20208;-68
2021/08/07 04:44:14;;;;;;;2.70;1.50;;;;;;;15.98;76.20;100243.13;5032177;28;20296;-67
2021/08/07 04:46:42;;;;;;;1.50;1.40;;;;;;;16.04;76.48;100247.94;5030713;28;20203;-68
2021/08/07 04:49:13;;;;;;;2.50;1.63;;;;;;;16.00;76.31;100235.72;5043949;28;20576;-67
2021/08/07 04:51:41;;;;;;;1.40;1.30;;;;;;;16.11;75.70;100231.94;5027763;28;20219;-68
2021/08/07 04:54:10;;;;;;;3.10;1.60;;;;;;;16.11;76.57;100242.78;5042466;28;20198;-68
2021/08/07 04:56:43;;;;;;;2.57;1.40;;;;;;;16.13;76.45;100248.88;5022671;28;20612;-68
2021/08/07 04:59:12;;;;;;;1.50;1.20;;;;;;;15.67;76.43;100171.34;5025249;28;20202;-68
2021/08/07 05:01:40;;;;;;;2.60;1.40;;;;;;;16.15;76.40;100236.03;5030556;28;20210;-68
2021/08/07 05:04:10;;;;;;;1.50;1.37;;;;;;;16.15;76.16;100233.31;5030732;28;20210;-68
2021/08/07 05:06:40;;;;;;;1.43;1.33;;;;;;;16.24;76.54;100229.72;5043602;28;20700;-68
2021/08/07 05:09:09;;;;;;;1.50;1.40;;;;;;;16.40;75.48;100237.16;5024436;28;20706;-68
2021/08/07 05:11:52;;;;;;;1.70;1.40;;;;;;;16.55;75.11;100230.22;5030140;28;20210;-68
2021/08/07 05:14:20;;;;;;;2.40;1.80;;;;;;;16.52;75.79;100226.94;5040007;28;20207;-68
2021/08/07 05:16:49;;;;;;;1.90;1.70;;;;;;;16.52;75.90;100224.22;5029979;28;20635;-67
2021/08/07 05:19:18;;;;;;;1.37;1.27;;;;;;;16.58;76.10;100229.91;5031303;28;20221;-68
2021/08/07 05:21:46;;;;;;;1.33;1.23;;;;;;;16.60;75.75;100218.88;5031450;28;20222;-68
2021/08/07 05:24:14;;;;;;;2.47;1.60;;;;;;;16.73;75.32;100206.66;5046948;28;20697;-68
2021/08/07 05:26:42;;;;;;;2.60;1.53;;;;;;;16.93;74.66;100215.47;5029752;28;20199;-67
2021/08/07 05:29:12;;;;;;;2.20;1.40;;;;;;;16.99;75.16;100212.13;5031163;28;20312;-68
2021/08/07 05:31:40;;;;;;;3.10;1.40;;;;;;;17.11;74.60;100206.44;5029521;28;20241;-68
2021/08/07 05:34:08;;;;;;;1.40;1.30;;;;;;;17.18;74.77;100199.38;5029896;28;20215;-68
2021/08/07 05:36:37;;;;;;;1.77;1.57;;;;;;;17.20;74.61;100210.91;5043369;28;20207;-68
2021/08/07 05:39:05;;;;;;;1.40;1.30;;;;;;;17.27;74.25;100203.84;5026680;28;20664;-68
2021/08/07 05:41:33;;;;;;;1.53;1.33;;;;;;;17.37;73.62;100193.69;5032953;28;20238;-68
2021/08/07 05:44:01;;;;;;;1.20;1.20;;;;;;;17.47;74.07;100191.75;5029958;28;20725;-68
2021/08/07 05:46:31;;;;;;;2.30;1.33;;;;;;;17.71;73.56;100198.31;5029589;28;20206;-68
2021/08/07 05:49:02;;;;;;;1.50;1.40;;;;;;;17.69;72.86;100201.19;5042728;28;20593;-68
2021/08/07 05:51:32;;;;;;;5.97;1.70;;;;;;;17.81;72.77;100197.19;5016505;28;20686;-68
2021/08/07 05:54:01;;;;;;;1.87;1.27;;;;;;;17.83;71.94;100188.88;5015925;28;20203;-69
2021/08/07 05:56:29;;;;;;;2.43;1.30;;;;;;;17.69;71.90;100199.31;5032266;28;20209;-68
2021/08/07 05:58:57;;;;;;;3.10;1.47;;;;;;;17.72;72.42;100194.56;5029338;28;20229;-68
2021/08/07 06:01:26;;;;;;;1.87;1.50;;;;;;;17.80;71.37;100189.19;5029256;28;20289;-68
2021/08/07 06:03:56;;;;;;;1.93;1.30;;;;;;;17.68;71.86;100191.34;5045890;28;20230;-68
2021/08/07 06:06:24;;;;;;;1.70;1.60;;;;;;;17.79;71.52;100190.22;5042197;28;20583;-68
2021/08/07 06:08:53;;;;;;;1.40;1.30;;;;;;;17.93;71.95;100189.56;5036265;28;20617;-68
2021/08/07 06:11:21;;;;;;;1.73;1.63;;;;;;;17.90;72.17;100179.88;5015052;28;20211;-68
2021/08/07 06:13:49;;;;;;;2.57;1.50;;;;;;;17.96;72.03;100183.81;5029244;28;20206;-68
2021/08/07 06:16:18;;;;;;;1.50;1.40;;;;;;;17.98;71.10;100181.78;5043715;28;20612;-68
2021/08/07 06:18:48;;;;;;;1.47;1.37;;;;;;;17.94;71.53;100172.25;5028978;28;20297;-68
2021/08/07 06:21:18;;;;;;;1.60;1.30;;;;;;;18.07;71.77;100180.78;5042664;28;20215;-68
2021/08/07 06:23:47;;;;;;;2.97;1.40;;;;;;;17.97;71.38;100163.75;5045654;28;20609;-68
2021/08/07 06:26:17;;;;;;;3.37;1.40;;;;;;;18.07;71.16;100180.78;5029124;28;20689;-68
2021/08/07 06:28:45;;;;;;;1.50;1.40;;;;;;;17.93;71.23;100173.28;5045097;28;20249;-68
2021/08/07 06:31:13;;;;;;;1.37;1.27;;;;;;;17.95;71.20;100138.63;5028698;28;20245;-69
2021/08/07 06:33:43;;;;;;;1.37;1.27;;;;;;;18.16;70.44;100168.91;5028487;28;20628;-68
2021/08/07 06:36:11;;;;;;;1.67;1.57;;;;;;;18.09;70.37;100161.59;5042188;28;20294;-68
2021/08/07 06:38:41;;;;;;;1.40;1.30;;;;;;;18.17;70.73;100162.47;5027279;28;20588;-68
2021/08/07 06:41:09;;;;;;;2.37;1.40;;;;;;;18.09;70.63;100162.44;5030210;28;20206;-68
2021/08/07 06:43:55;;;;;;;2.27;1.43;;;;;;;18.13;71.19;100152.09;5028470;28;20314;-69
2021/08/07 06:46:33;;;;;;;1.57;1.40;;;;;;;18.06;71.07;100157.34;5028297;28;20589;-69
2021/08/07 06:49:02;;;;;;;3.77;1.50;;;;;;;18.06;70.44;100151.91;5029412;28;20590;-68
2021/08/07 06:51:30;;;;;;;2.87;1.60;;;;;;;18.04;71.26;100153.94;5044906;28;20211;-68
2021/08/07 06:54:01;;;;;;;3.57;1.50;;;;;;;18.12;71.39;100153.13;5028466;28;20203;-68
2021/08/07 06:56:31;;;;;;;1.40;1.30;;;;;;;18.16;70.62;100163.47;5031579;28;20206;-68
2021/08/07 06:59:01;;;;;;;1.67;1.50;;;;;;;18.11;70.65;100146.84;5025291;28;20309;-68
2021/08/07 07:01:29;;;;;;;3.00;1.60;;;;;;;18.16;71.09;100163.47;5044167;28;20206;-68
2021/08/07 07:03:57;;;;;;;1.80;1.33;;;;;;;18.23;71.01;100159.06;5028390;28;20206;-68
2021/08/07 07:06:25;;;;;;;2.33;1.60;;;;;;;18.17;71.24;100159.75;5028211;28;20835;-68
2021/08/07 07:08:53;;;;;;;1.50;1.37;;;;;;;18.23;71.18;100159.06;5029185;28;20210;-68
2021/08/07 07:11:23;;;;;;;2.37;1.50;;;;;;;18.23;70.71;100164.50;5044629;28;20207;-68
2021/08/07 07:13:51;;;;;;;1.60;1.50;;;;;;;18.31;70.38;100142.75;5029459;28;20563;-68
2021/08/07 07:16:19;;;;;;;2.97;1.40;;;;;;;18.40;70.03;100154.50;5044498;28;20256;-68
2021/08/07 07:18:48;;;;;;;1.57;1.47;;;;;;;18.31;69.41;100148.19;5029875;28;20313;-68
2021/08/07 07:21:16;;;;;;;1.43;1.33;;;;;;;18.20;70.25;100151.25;5027829;28;20203;-68
2021/08/07 07:23:44;;;;;;;2.10;1.50;;;;;;;18.21;69.75;100143.94;5027575;28;20302;-68
2021/08/07 07:26:12;;;;;;;2.13;1.40;;;;;;;18.14;70.23;100141.06;5041629;28;20213;-68
2021/08/07 07:28:42;;;;;;;2.13;1.57;;;;;;;18.22;69.25;100154.66;5043606;28;20718;-68
2021/08/07 07:31:10;;;;;;;1.80;1.60;;;;;;;18.29;69.75;100142.06;5028255;28;20243;-68
2021/08/07 07:33:39;;;;;;;2.47;1.60;;;;;;;18.30;69.67;100141.06;5027864;28;20210;-68
2021/08/07 07:36:07;;;;;;;1.43;1.30;;;;;;;18.23;69.53;100139.19;5041424;28;20218;-67
2021/08/07 07:38:35;;;;;;;2.10;1.30;;;;;;;18.25;69.03;100140.72;5041480;28;20442;-68
2021/08/07 07:41:04;;;;;;;4.70;1.60;;;;;;;18.13;69.16;100142.06;5027981;28;20248;-68
2021/08/07 07:43:32;;;;;;;1.40;1.30;;;;;;;18.16;68.54;100147.19;5028998;28;20198;-68
2021/08/07 07:46:01;;;;;;;1.40;1.30;;;;;;;18.14;69.20;100132.91;5027997;28;20340;-68
2021/08/07 07:48:30;;;;;;;2.57;1.37;;;;;;;18.20;68.96;100132.22;5041570;28;20254;-68
2021/08/07 07:50:58;;;;;;;2.10;1.53;;;;;;;18.25;68.58;100143.44;5014046;28;20272;-68
2021/08/07 07:53:27;;;;;;;1.77;1.50;;;;;;;18.27;67.95;100138.69;5028917;28;20199;-68
2021/08/07 07:55:55;;;;;;;2.73;1.50;;;;;;;18.24;68.04;100135.44;5044148;28;20240;-68
2021/08/07 07:58:23;;;;;;;1.37;1.27;;;;;;;17.93;68.16;100083.59;5028792;28;20226;-68
2021/08/07 08:00:52;;;;;;;1.30;1.27;;;;;;;18.18;68.08;100123.38;5028759;28;20536;-68
2021/08/07 08:03:22;;;;;;;1.40;1.30;;;;;;;18.07;68.18;100121.00;5040739;28;20203;-68
2021/08/07 08:05:50;;;;;;;1.70;1.60;;;;;;;18.05;68.06;100130.31;5022282;28;20597;-68
2021/08/07 08:08:19;;;;;;;4.67;1.70;;;;;;;18.17;67.79;100126.28;5027631;28;20242;-69
2021/08/07 08:10:47;;;;;;;1.60;1.50;;;;;;;18.11;68.74;100127.81;5041011;28;20199;-68
2021/08/07 08:13:20;;;;;;;3.60;1.50;;;;;;;18.06;68.49;100130.19;5026383;28;20290;-68
2021/08/07 08:15:51;;;;;;;4.10;1.77;;;;;;;18.08;68.38;100127.28;5024469;28;20215;-68
2021/08/07 08:18:23;;;;;;;1.50;1.40;;;;;;;18.19;68.52;100130.53;5042407;28;20195;-68
2021/08/07 08:20:51;;;;;;;2.53;1.50;;;;;;;18.24;68.05;100130.00;5028922;28;20231;-68
2021/08/07 08:23:20;;;;;;;1.30;1.20;;;;;;;18.12;68.55;100128.66;5027493;28;20573;-68
2021/08/07 08:25:50;;;;;;;3.00;1.50;;;;;;;18.20;68.59;100129.50;5027452;28;20248;-68
2021/08/07 08:28:18;;;;;;;1.40;1.30;;;;;;;18.16;68.51;100125.44;5043105;28;20315;-68
2021/08/07 08:30:47;;;;;;;5.60;1.40;;;;;;;18.27;68.13;100133.25;5027234;28;20772;-68
2021/08/07 08:33:15;;;;;;;2.13;1.70;;;;;;;18.23;68.60;100121.00;5027544;28;20617;-68
2021/08/07 08:35:46;;;;;;;1.87;1.40;;;;;;;18.18;69.33;100134.25;5028382;28;20257;-69
2021/08/07 08:38:16;;;;;;;2.67;1.60;;;;;;;18.05;69.62;100133.88;5044486;28;20703;-68
2021/08/07 08:40:44;;;;;;;1.87;1.60;;;;;;;18.07;69.82;100131.88;5047413;28;20398;-68
2021/08/07 08:43:14;;;;;;;2.30;1.50;;;;;;;18.05;70.30;100131.16;5032668;28;20671;-68
2021/08/07 08:45:44;;;;;;;1.70;1.53;;;;;;;18.13;69.94;100130.34;5031781;28;20434;-68
2021/08/07 08:48:15;;;;;;;1.50;1.40;;;;;;;18.04;70.32;100112.31;5031192;28;20632;-68
2021/08/07 08:50:45;;;;;;;4.67;1.47;;;;;;;18.12;70.47;100126.78;5044550;28;20614;-69
2021/08/07 08:53:13;;;;;;;2.33;1.63;;;;;;;18.00;71.33;100131.69;5030765;28;20203;-68
2021/08/07 08:55:41;;;;;;;2.07;1.70;;;;;;;17.99;71.62;100132.69;5030614;28;20198;-68
2021/08/07 08:58:10;;;;;;;3.87;1.40;;;;;;;18.06;71.63;100124.75;5033417;28;20211;-68
2021/08/07 09:00:38;;;;;;;2.00;1.50;;;;;;;17.97;72.40;100137.44;5030429;28;20293;-68
2021/08/07 09:03:07;;;;;;;1.50;1.40;;;;;;;17.96;72.96;100133.03;5043963;28;20243;-68
2021/08/07 09:05:36;;;;;;;1.97;1.77;;;;;;;17.98;73.47;100138.28;5038431;28;20269;-68
2021/08/07 09:08:06;;;;;;;1.60;1.50;;;;;;;17.87;73.85;100125.03;5030238;28;20652;-68
2021/08/07 09:10:35;;;;;;;2.50;1.73;;;;;;;17.91;74.01;100132.69;5043452;28;20322;-68
2021/08/07 09:13:06;;;;;;;2.77;1.67;;;;;;;17.83;74.40;100131.81;5043400;28;20689;-68
2021/08/07 09:15:37;;;;;;;2.33;1.83;;;;;;;17.80;73.98;100130.28;5046687;28;20218;-68
2021/08/07 09:18:15;;;;;;;2.33;1.73;;;;;;;17.73;75.25;100134.66;5046750;28;20210;-68
2021/08/07 09:20:51;;;;;;;2.07;1.87;;;;;;;17.61;75.98;100125.09;5030081;28;20228;-68
2021/08/07 09:23:32;;;;;;;1.83;1.70;;;;;;;17.71;76.16;100127.69;5030144;28;20500;-68
2021/08/07 09:26:13;;;;;;;1.97;1.83;;;;;;;17.75;75.40;100132.63;5046720;28;20214;-68
2021/08/07 09:28:44;;;;;;;2.90;1.60;;;;;;;17.67;76.21;100122.59;5029573;28;20210;-68
2021/08/07 09:31:18;;;;;;;2.20;1.90;;;;;;;17.73;76.26;100125.66;5046520;28;20264;-68
2021/08/07 09:33:47;;;;;;;3.73;1.90;;;;;;;17.78;76.33;100120.59;5030805;28;20210;-68
2021/08/07 09:36:15;;;;;;;1.73;1.63;;;;;;;17.82;76.20;100120.09;5030001;28;20598;-68
2021/08/07 09:38:46;;;;;;;3.23;1.93;;;;;;;17.81;76.23;100120.28;5029230;28;20202;-67
2021/08/07 09:41:15;;;;;;;2.33;1.80;;;;;;;17.72;76.50;100089.50;5043158;28;20659;-68
2021/08/07 09:43:50;;;;;;;3.33;1.70;;;;;;;17.90;76.81;100117.41;5043654;28;20194;-68
2021/08/07 09:46:25;;;;;;;3.17;1.77;;;;;;;18.00;76.48;100111.81;5029079;28;20321;-68
2021/08/07 09:49:04;;;;;;;2.57;1.80;;;;;;;18.06;76.25;100113.88;5046005;28;20212;-68
2021/08/07 09:51:35;;;;;;;1.83;1.73;;;;;;;17.87;76.36;100078.84;5042753;28;20231;-68
2021/08/07 09:54:16;;;;;;;4.03;2.00;;;;;;;18.17;76.10;100110.81;5041328;28;20203;-68
2021/08/07 09:56:50;;;;;;;4.77;1.83;;;;;;;18.15;76.21;100101.97;5045814;28;20238;-68
2021/08/07 09:59:22;;;;;;;2.10;1.90;;;;;;;17.83;76.64;100061.19;5029592;28;20203;-68
2021/08/07 10:01:52;;;;;;;1.83;1.53;;;;;;;18.10;76.90;100104.38;5046373;28;20759;-67
2021/08/07 10:04:23;;;;;;;2.20;1.50;;;;;;;18.04;76.57;100088.72;5029901;28;20222;-68
2021/08/07 10:07:08;;;;;;;2.33;2.00;;;;;;;18.11;77.14;100102.50;5046085;28;20203;-67
2021/08/07 10:09:45;;;;;;;3.90;1.87;;;;;;;18.20;76.66;100096.88;5028859;28;20303;-68
2021/08/07 10:12:16;;;;;;;2.00;1.80;;;;;;;18.24;76.63;100105.56;5029127;28;20227;-68
2021/08/07 10:14:56;;;;;;;3.30;1.80;;;;;;;18.25;77.17;100113.53;5015127;28;20210;-68
2021/08/07 10:17:26;;;;;;;2.37;1.90;;;;;;;18.31;76.45;100106.56;5028824;28;20211;-68
2021/08/07 10:19:56;;;;;;;3.17;1.90;;;;;;;18.35;76.17;100107.06;5030074;28;20207;-68
2021/08/07 10:22:27;;;;;;;2.40;1.90;;;;;;;18.07;76.81;100065.81;5028877;28;20730;-68
2021/08/07 10:25:03;;;;;;;4.23;1.80;;;;;;;18.35;76.84;100115.22;5045436;28;21810;-68
2021/08/07 10:27:34;;;;;;;4.83;1.73;;;;;;;18.31;77.32;100112.84;5029980;28;20194;-68
2021/08/07 10:30:06;;;;;;;3.70;1.93;;;;;;;18.24;77.44;100111.84;5045100;28;20238;-68
2021/08/07 10:32:40;;;;;;;2.90;1.83;;;;;;;18.16;77.57;100087.38;5028575;28;20572;-69
2021/08/07 10:35:11;;;;;;;2.23;1.97;;;;;;;18.33;77.07;100114.56;5028592;28;20206;-68
2021/08/07 10:37:41;;;;;;;5.13;1.90;;;;;;;18.00;76.25;100055.59;5028640;28;20563;-68
2021/08/07 10:40:13;;;;;;;2.37;1.90;;;;;;;18.23;77.62;100115.56;5044940;28;20298;-68
2021/08/07 10:42:45;;;;;;;2.90;2.20;;;;;;;18.34;77.30;100111.66;5045047;28;20213;-69
2021/08/07 10:45:16;;;;;;;2.57;1.90;;;;;;;18.00;77.79;100063.75;5045160;28;20216;-68
2021/08/07 10:47:46;;;;;;;2.13;1.90;;;;;;;18.29;77.91;100114.91;5028260;28;20207;-68
2021/08/07 10:50:38;;;;;;;2.27;1.97;;;;;;;18.38;78.24;100104.88;5028475;28;20317;-68
2021/08/07 10:53:37;;;;;;;2.83;1.90;;;;;;;18.46;77.45;100109.47;5029043;28;20203;-68
2021/08/07 10:56:07;;;;;;;2.40;1.90;;;;;;;18.50;77.45;100106.22;5026596;28;20201;-68
2021/08/07 10:58:43;;;;;;;2.33;1.80;;;;;;;18.63;77.26;100115.75;5029164;28;20203;-68
2021/08/07 11:01:31;;;;;;;4.03;1.80;;;;;;;18.61;77.34;100105.03;5029580;28;20218;-68
2021/08/07 11:04:15;;;;;;;2.60;1.90;;;;;;;18.58;77.77;100108.94;5029668;28;20754;-68
2021/08/07 11:06:48;;;;;;;2.30;2.10;;;;;;;18.35;77.29;100069.84;5029496;28;20272;-69
2021/08/07 11:09:18;;;;;;;2.30;2.10;;;;;;;18.64;76.32;100115.59;5029530;28;20276;-68
2021/08/07 11:11:48;;;;;;;2.30;2.10;;;;;;;18.72;76.19;100120.19;5015255;28;20223;-68
2021/08/07 11:14:47;;;;;;;3.47;1.93;;;;;;;18.76;76.45;100114.25;5029453;28;20210;-68
2021/08/07 11:17:34;;;;;;;6.53;1.90;;;;;;;18.83;75.76;100120.69;5018854;28;20671;-68
2021/08/07 11:20:07;;;;;;;2.20;2.00;;;;;;;18.73;76.59;100117.31;5029074;28;20198;-68
2021/08/07 11:23:12;;;;;;;3.03;2.00;;;;;;;18.66;77.96;100123.59;5029150;28;20203;-68
2021/08/07 11:26:01;;;;;;;2.27;2.00;;;;;;;18.53;77.97;100102.31;5028991;28;20628;-69
2021/08/07 11:28:31;;;;;;;2.97;2.30;;;;;;;18.56;78.64;100115.56;5029170;28;20221;-68
2021/08/07 11:31:20;;;;;;;3.23;2.00;;;;;;;18.59;77.94;100117.94;5029210;28;20226;-68
2021/08/07 11:34:20;;;;;;;4.90;2.03;;;;;;;18.60;78.11;100106.06;5029691;28;20730;-68
2021/08/07 11:37:21;;;;;;;2.37;2.17;;;;;;;18.57;77.70;100109.13;5044067;28;20206;-67
2021/08/07 11:40:12;;;;;;;2.20;2.00;;;;;;;18.59;78.41;100102.47;5028887;28;20698;-68
2021/08/07 11:42:50;;;;;;;2.93;2.00;;;;;;;18.50;78.18;100102.66;5029288;28;20293;-68
2021/08/07 11:45:23;;;;;;;2.33;2.00;;;;;;;18.36;79.43;100106.06;5029086;28;20202;-67